createdAt,value
2018-02-21T00:00:35.315Z,-3.00
2018-02-21T00:03:02.635Z,-2.90
2018-02-21T00:05:29.779Z,-2.70
2018-02-21T00:07:56.952Z,-2.60
2018-02-21T00:10:24.089Z,-2.60
2018-02-21T00:12:51.224Z,-2.50
2018-02-21T00:15:17.627Z,-2.10
2018-02-21T00:17:44.058Z,-2.20
2018-02-21T00:20:10.501Z,-2.10
2018-02-21T00:22:36.925Z,-1.80
2018-02-21T00:25:03.946Z,-2.00
2018-02-21T00:27:30.438Z,-1.90
2018-02-21T00:29:56.875Z,-1.60
2018-02-21T00:32:24.134Z,-1.80
2018-02-21T00:34:51.284Z,-1.90
2018-02-21T00:37:17.786Z,-1.90
2018-02-21T00:39:44.219Z,-1.90
2018-02-21T00:42:10.616Z,-2.10
2018-02-21T00:44:37.803Z,-2.50
2018-02-21T00:47:04.804Z,-2.50
2018-02-21T00:49:31.979Z,-2.50
2018-02-21T00:51:58.362Z,-2.50
2018-02-21T00:54:24.813Z,-2.20
2018-02-21T00:56:51.210Z,-2.20
2018-02-21T00:59:17.639Z,-2.00
2018-02-21T01:01:52.178Z,-2.30
2018-02-21T01:04:25.482Z,-2.70
2018-02-21T01:06:51.893Z,-2.70
2018-02-21T01:09:18.289Z,-2.80
2018-02-21T01:11:44.815Z,-3.30
2018-02-21T01:14:11.989Z,-3.30
2018-02-21T01:16:38.434Z,-3.30
2018-02-21T01:19:05.364Z,-3.40
2018-02-21T01:21:31.922Z,-3.30
2018-02-21T01:23:59.072Z,-3.20
2018-02-21T01:26:26.270Z,-3.30
2018-02-21T01:28:52.668Z,-3.40
2018-02-21T01:31:19.054Z,-3.40
2018-02-21T01:33:46.283Z,-3.60
2018-02-21T01:36:13.442Z,-3.60
2018-02-21T01:38:39.876Z,-3.60
2018-02-21T01:41:06.506Z,-3.30
2018-02-21T01:43:33.774Z,-3.60
2018-02-21T01:46:00.187Z,-3.70
2018-02-21T01:48:26.595Z,-3.30
2018-02-21T01:50:52.984Z,-3.50
2018-02-21T01:53:19.427Z,-3.40
2018-02-21T01:55:46.414Z,-3.30
2018-02-21T01:58:12.841Z,-3.50
2018-02-21T02:00:39.322Z,-3.30
2018-02-21T02:03:06.589Z,-3.40
2018-02-21T02:05:33.261Z,-3.50
2018-02-21T02:08:00.419Z,-3.50
2018-02-21T02:10:26.905Z,-3.50
2018-02-21T02:12:53.360Z,-3.50
2018-02-21T02:15:19.905Z,-3.50
2018-02-21T02:17:46.346Z,-3.50
2018-02-21T02:20:12.867Z,-3.50
2018-02-21T02:22:39.300Z,-3.50
2018-02-21T02:25:05.968Z,-3.40
2018-02-21T02:27:32.439Z,-3.20
2018-02-21T02:29:58.927Z,-3.00
2018-02-21T02:32:25.445Z,-2.80
2018-02-21T02:34:52.649Z,-2.60
2018-02-21T02:37:19.097Z,-2.70
2018-02-21T02:39:57.680Z,-2.70
2018-02-21T02:42:24.935Z,-2.70
2018-02-21T02:44:52.167Z,-2.70
2018-02-21T02:47:18.623Z,-2.70
2018-02-21T02:49:45.098Z,-2.70
2018-02-21T02:52:12.378Z,-2.50
2018-02-21T02:54:38.828Z,-2.50
2018-02-21T02:57:05.928Z,-2.30
2018-02-21T02:59:33.131Z,-2.30
2018-02-21T03:01:59.629Z,-2.30
2018-02-21T03:04:26.120Z,-2.30
2018-02-21T03:06:53.541Z,-2.40
2018-02-21T03:09:20.024Z,-2.30
2018-02-21T03:11:47.195Z,-2.30
2018-02-21T03:14:14.367Z,-2.30
2018-02-21T03:16:41.551Z,-2.20
2018-02-21T03:19:08.004Z,-2.30
2018-02-21T03:21:35.296Z,-2.40
2018-02-21T03:24:01.739Z,-2.40
2018-02-21T03:26:28.247Z,-2.60
2018-02-21T03:28:54.713Z,-2.80
2018-02-21T03:31:21.109Z,-3.00
2018-02-21T03:33:47.543Z,-3.10
2018-02-21T03:36:14.004Z,-3.10
2018-02-21T03:38:40.549Z,-3.00
2018-02-21T03:41:06.960Z,-2.90
2018-02-21T03:43:33.444Z,-2.90
2018-02-21T03:45:59.867Z,-2.90
2018-02-21T03:48:26.411Z,-2.90
2018-02-21T03:50:53.174Z,-2.90
2018-02-21T03:53:19.604Z,-2.60
2018-02-21T03:55:46.059Z,-2.50
2018-02-21T03:58:12.483Z,-2.30
2018-02-21T04:00:39.743Z,-2.00
2018-02-21T04:03:07.003Z,-2.00
2018-02-21T04:05:33.431Z,-2.00
2018-02-21T04:08:00.056Z,-1.90
2018-02-21T04:10:26.544Z,-1.80
2018-02-21T04:12:53.045Z,-1.70
2018-02-21T04:15:19.628Z,-1.70
2018-02-21T04:17:46.084Z,-1.80
2018-02-21T04:20:12.623Z,-1.90
2018-02-21T04:22:39.131Z,-1.90
2018-02-21T04:25:05.873Z,-2.00
2018-02-21T04:27:32.323Z,-2.10
2018-02-21T04:29:58.899Z,-2.10
2018-02-21T04:32:25.323Z,-2.20
2018-02-21T04:34:51.791Z,-2.30
2018-02-21T04:37:18.970Z,-2.50
2018-02-21T04:39:45.499Z,-2.60
2018-02-21T04:42:12.727Z,-2.80
2018-02-21T04:44:39.929Z,-2.90
2018-02-21T04:47:07.119Z,-3.00
2018-02-21T04:49:34.406Z,-3.00
2018-02-21T04:52:00.867Z,-3.10
2018-02-21T04:54:34.228Z,-3.20
2018-02-21T04:59:59.423Z,-3.10
2018-02-21T05:02:25.933Z,-3.10
2018-02-21T05:04:52.358Z,-1.90
2018-02-21T05:07:19.526Z,-3.10
2018-02-21T05:09:46.031Z,-3.10
2018-02-21T05:12:12.493Z,-3.10
2018-02-21T05:14:38.939Z,-3.10
2018-02-21T05:17:06.172Z,-3.10
2018-02-21T05:19:33.351Z,-3.20
2018-02-21T05:22:00.629Z,-3.20
2018-02-21T05:24:27.851Z,-3.30
2018-02-21T05:26:55.150Z,-3.30
2018-02-21T05:29:21.647Z,-3.30
2018-02-21T05:31:48.075Z,-3.30
2018-02-21T05:34:14.560Z,-3.30
2018-02-21T05:36:41.027Z,-3.20
2018-02-21T05:39:07.579Z,-3.20
2018-02-21T05:41:34.108Z,-3.10
2018-02-21T05:44:01.133Z,-3.00
2018-02-21T05:46:28.425Z,-3.00
2018-02-21T05:48:54.980Z,-3.10
2018-02-21T05:51:22.225Z,-3.00
2018-02-21T05:53:48.749Z,-3.00
2018-02-21T05:56:15.187Z,-2.90
2018-02-21T05:58:41.680Z,-2.80
2018-02-21T06:01:08.238Z,-2.60
2018-02-21T06:03:34.747Z,-2.40
2018-02-21T06:06:01.516Z,-2.00
2018-02-21T06:08:30.182Z,-1.70
2018-02-21T06:10:58.244Z,-1.60
2018-02-21T06:13:25.811Z,-1.50
2018-02-21T06:15:55.143Z,-1.40
2018-02-21T06:18:22.741Z,-1.50
2018-02-21T06:20:50.574Z,-1.30
2018-02-21T06:23:20.444Z,-1.30
2018-02-21T06:25:49.344Z,-2.00
2018-02-21T06:30:55.639Z,-1.20
2018-02-21T06:33:24.106Z,-1.20
2018-02-21T06:35:52.991Z,-1.20
2018-02-21T06:38:19.914Z,-1.20
2018-02-21T06:40:47.532Z,-1.00
2018-02-21T06:43:14.165Z,-1.10
2018-02-21T06:45:40.749Z,-0.90
2018-02-21T06:48:08.410Z,-0.90
2018-02-21T06:50:35.792Z,-0.90
2018-02-21T06:53:04.228Z,-1.00
2018-02-21T06:55:36.540Z,-0.90
2018-02-21T06:58:04.029Z,-0.90
2018-02-21T07:00:31.721Z,0.20
2018-02-21T07:05:40.451Z,-1.10
2018-02-21T07:08:08.960Z,-1.60
2018-02-21T07:10:35.491Z,-1.30
2018-02-21T07:13:05.683Z,-1.40
2018-02-21T07:15:33.641Z,-1.40
2018-02-21T07:18:00.191Z,-1.40
2018-02-21T07:20:27.426Z,-1.50
2018-02-21T07:22:54.757Z,-1.40
2018-02-21T07:25:21.414Z,-1.50
2018-02-21T07:27:49.815Z,-1.40
2018-02-21T07:30:17.097Z,-1.50
2018-02-21T07:32:44.657Z,-1.50
2018-02-21T07:35:11.331Z,-1.50
2018-02-21T07:37:38.913Z,-1.60
2018-02-21T07:40:07.252Z,-1.60
2018-02-21T07:42:33.990Z,-1.50
2018-02-21T07:45:01.511Z,-1.40
2018-02-21T07:47:32.438Z,-1.50
2018-02-21T07:50:04.828Z,-1.50
2018-02-21T07:52:32.762Z,-1.40
2018-02-21T07:55:04.890Z,-1.40
2018-02-21T07:57:36.373Z,-1.20
2018-02-21T08:00:05.187Z,-1.10
2018-02-21T08:02:35.815Z,-1.30
2018-02-21T08:05:08.611Z,-0.80
2018-02-21T08:07:42.876Z,-0.80
2018-02-21T08:10:12.608Z,-0.70
2018-02-21T08:12:41.467Z,-0.80
2018-02-21T08:15:11.394Z,-0.20
2018-02-21T08:17:40.600Z,-0.60
2018-02-21T08:20:07.324Z,-0.50
2018-02-21T08:22:35.095Z,-0.50
2018-02-21T08:25:04.424Z,-0.20
2018-02-21T08:27:31.813Z,-0.30
2018-02-21T08:30:00.273Z,0.00
2018-02-21T08:32:27.890Z,0.20
2018-02-21T08:34:54.706Z,0.20
2018-02-21T08:37:23.108Z,0.50
2018-02-21T08:39:56.185Z,0.50
2018-02-21T08:42:28.017Z,1.60
2018-02-21T08:44:59.182Z,1.10
2018-02-21T08:47:27.329Z,1.50
2018-02-21T08:50:00.004Z,1.50
2018-02-21T08:52:28.056Z,1.40
2018-02-21T08:54:56.919Z,1.70
2018-02-21T08:57:26.923Z,1.90
2018-02-21T09:02:58.945Z,2.10
2018-02-21T09:05:28.952Z,2.40
2018-02-21T09:08:00.025Z,2.40
2018-02-21T09:10:27.320Z,2.50
2018-02-21T09:12:55.602Z,2.60
2018-02-21T09:15:25.784Z,2.50
2018-02-21T09:17:54.847Z,2.60
2018-02-21T09:20:21.610Z,3.00
2018-02-21T09:22:48.645Z,3.10
2018-02-21T09:25:16.230Z,3.10
2018-02-21T09:27:43.275Z,3.10
2018-02-21T09:30:09.951Z,3.20
2018-02-21T09:35:21.412Z,3.60
2018-02-21T09:37:48.892Z,3.50
2018-02-21T09:40:18.003Z,3.40
2018-02-21T09:42:46.216Z,3.40
2018-02-21T09:45:13.790Z,3.70
2018-02-21T09:47:41.896Z,4.10
2018-02-21T09:50:09.841Z,4.00
2018-02-21T09:52:36.527Z,4.20
2018-02-21T09:55:04.859Z,4.00
2018-02-21T09:57:41.406Z,4.20
2018-02-21T10:00:08.429Z,4.30
2018-02-21T10:02:35.087Z,4.50
2018-02-21T10:05:03.337Z,4.30
2018-02-21T10:07:30.261Z,5.00
2018-02-21T10:09:57.100Z,4.80
2018-02-21T10:12:24.173Z,4.80
2018-02-21T10:14:50.909Z,4.90
2018-02-21T10:17:19.085Z,5.30
2018-02-21T10:19:45.673Z,5.20
2018-02-21T10:22:12.386Z,5.30
2018-02-21T10:24:39.180Z,5.30
2018-02-21T10:27:08.679Z,5.10
2018-02-21T10:29:36.474Z,5.40
2018-02-21T10:32:05.382Z,5.40
2018-02-21T10:34:44.460Z,5.50
2018-02-21T10:37:12.398Z,5.50
2018-02-21T10:39:41.292Z,5.60
2018-02-21T10:42:08.273Z,5.60
2018-02-21T10:44:36.439Z,5.90
2018-02-21T10:47:04.003Z,6.00
2018-02-21T10:49:32.729Z,6.40
2018-02-21T10:51:59.387Z,6.30
2018-02-21T10:54:27.752Z,6.40
2018-02-21T10:56:55.355Z,6.30
2018-02-21T10:59:22.097Z,6.10
2018-02-21T11:01:54.808Z,6.20
2018-02-21T11:04:24.311Z,5.70
2018-02-21T11:06:51.236Z,6.00
2018-02-21T11:09:19.424Z,6.10
2018-02-21T11:11:47.580Z,5.70
2018-02-21T11:14:15.679Z,5.40
2018-02-21T11:16:42.955Z,5.60
2018-02-21T11:19:12.598Z,5.60
2018-02-21T11:21:43.596Z,5.50
2018-02-21T11:24:10.485Z,5.50
2018-02-21T11:26:38.446Z,5.60
2018-02-21T11:29:13.473Z,5.80
2018-02-21T11:31:44.254Z,5.80
2018-02-21T11:34:15.377Z,6.00
2018-02-21T11:36:44.392Z,5.80
2018-02-21T11:39:13.267Z,5.80
2018-02-21T11:41:41.697Z,5.70
2018-02-21T11:44:09.666Z,5.90
2018-02-21T11:46:37.180Z,5.60
2018-02-21T11:49:05.279Z,5.90
2018-02-21T11:51:32.959Z,6.00
2018-02-21T11:53:59.526Z,6.10
2018-02-21T11:56:27.214Z,6.00
2018-02-21T11:58:55.102Z,5.10
2018-02-21T12:01:24.130Z,5.20
2018-02-21T12:03:50.833Z,5.20
2018-02-21T12:06:23.001Z,5.50
2018-02-21T12:08:53.223Z,5.50
2018-02-21T12:11:20.505Z,5.70
2018-02-21T12:13:47.145Z,5.60
2018-02-21T12:16:16.712Z,5.50
2018-02-21T12:18:44.149Z,5.60
2018-02-21T12:21:17.737Z,5.60
2018-02-21T12:23:50.001Z,5.80
2018-02-21T12:26:20.115Z,6.00
2018-02-21T12:28:50.090Z,6.00
2018-02-21T12:31:26.897Z,5.90
2018-02-21T12:36:56.372Z,6.00
2018-02-21T12:39:40.954Z,5.90
2018-02-21T12:42:09.609Z,6.00
2018-02-21T12:44:44.464Z,5.90
2018-02-21T12:47:12.027Z,6.00
2018-02-21T12:49:43.974Z,6.00
2018-02-21T12:52:22.187Z,6.00
2018-02-21T12:54:53.286Z,6.00
2018-02-21T12:57:23.581Z,5.10
2018-02-21T13:00:06.022Z,5.80
2018-02-21T13:02:34.205Z,6.00
2018-02-21T13:05:01.873Z,6.00
2018-02-21T13:07:30.301Z,6.20
2018-02-21T13:10:02.185Z,6.10
2018-02-21T13:12:35.660Z,6.00
2018-02-21T13:15:04.160Z,6.00
2018-02-21T13:17:32.301Z,5.90
2018-02-21T13:19:59.711Z,5.90
2018-02-21T13:22:26.382Z,5.70
2018-02-21T13:24:52.960Z,5.80
2018-02-21T13:27:30.970Z,5.90
2018-02-21T13:29:58.678Z,5.70
2018-02-21T13:32:25.875Z,5.80
2018-02-21T13:34:55.646Z,5.70
2018-02-21T13:37:28.433Z,5.70
2018-02-21T13:39:58.911Z,5.80
2018-02-21T13:42:40.652Z,5.80
2018-02-21T13:45:15.858Z,5.80
2018-02-21T13:47:45.724Z,6.30
2018-02-21T13:50:15.314Z,5.70
2018-02-21T13:52:42.215Z,5.70
2018-02-21T13:55:08.804Z,5.70
2018-02-21T13:57:35.582Z,5.80
2018-02-21T14:00:06.775Z,5.80
2018-02-21T14:02:44.812Z,5.80
2018-02-21T14:05:12.406Z,4.90
2018-02-21T14:07:44.886Z,5.80
2018-02-21T14:10:15.966Z,5.90
2018-02-21T14:12:43.851Z,5.90
2018-02-21T14:15:15.518Z,5.90
2018-02-21T14:17:42.717Z,5.80
2018-02-21T14:20:12.811Z,5.80
2018-02-21T14:22:39.392Z,5.80
2018-02-21T14:25:07.809Z,5.90
2018-02-21T14:27:42.143Z,5.90
2018-02-21T14:30:12.347Z,5.90
2018-02-21T14:32:40.370Z,5.90
2018-02-21T14:35:07.847Z,5.90
2018-02-21T14:37:39.581Z,5.90
2018-02-21T14:40:20.118Z,5.70
2018-02-21T14:42:47.955Z,5.70
2018-02-21T14:45:15.356Z,5.70
2018-02-21T14:47:42.260Z,5.70
2018-02-21T14:50:14.601Z,5.80
2018-02-21T14:52:42.245Z,5.80
2018-02-21T14:55:15.583Z,5.50
2018-02-21T14:57:47.236Z,5.50
2018-02-21T15:00:18.659Z,5.50
2018-02-21T15:02:46.544Z,5.50
2018-02-21T15:05:13.708Z,5.50
2018-02-21T15:07:40.373Z,5.50
2018-02-21T15:10:08.690Z,5.40
2018-02-21T15:12:36.054Z,5.30
2018-02-21T15:15:03.563Z,5.40
2018-02-21T15:17:30.176Z,5.30
2018-02-21T15:19:57.707Z,5.30
2018-02-21T15:22:24.912Z,5.20
2018-02-21T15:24:54.042Z,5.10
2018-02-21T15:27:22.811Z,5.00
2018-02-21T15:29:51.699Z,5.00
2018-02-21T15:32:18.371Z,5.00
2018-02-21T15:34:45.009Z,4.90
2018-02-21T15:37:11.666Z,4.80
2018-02-21T15:39:39.852Z,4.80
2018-02-21T15:42:16.696Z,4.50
2018-02-21T15:44:45.060Z,4.50
2018-02-21T15:47:12.000Z,4.50
2018-02-21T15:49:39.634Z,4.30
2018-02-21T15:52:14.797Z,4.30
2018-02-21T15:54:42.721Z,4.20
2018-02-21T15:57:09.549Z,4.10
2018-02-21T15:59:36.181Z,4.20
2018-02-21T16:02:03.884Z,4.00
2018-02-21T16:04:32.274Z,3.90
2018-02-21T16:06:59.734Z,3.80
2018-02-21T16:09:26.734Z,3.90
2018-02-21T16:14:31.837Z,3.60
2018-02-21T16:16:59.229Z,3.60
2018-02-21T16:19:28.370Z,3.60
2018-02-21T16:21:56.589Z,3.50
2018-02-21T16:24:23.990Z,3.20
2018-02-21T16:26:56.664Z,3.20
2018-02-21T16:29:28.713Z,3.10
2018-02-21T16:31:56.997Z,3.20
2018-02-21T16:34:25.108Z,2.90
2018-02-21T16:36:52.912Z,2.90
2018-02-21T16:39:20.347Z,2.90
2018-02-21T16:41:47.190Z,2.90
2018-02-21T16:44:15.626Z,2.80
2018-02-21T16:46:42.727Z,2.80
2018-02-21T16:49:10.195Z,2.50
2018-02-21T16:51:36.745Z,2.50
2018-02-21T16:54:15.302Z,2.40
2018-02-21T16:56:42.666Z,1.40
2018-02-21T16:59:11.343Z,2.20
2018-02-21T17:01:39.760Z,2.20
2018-02-21T17:04:14.830Z,2.10
2018-02-21T17:06:42.759Z,2.40
2018-02-21T17:09:14.703Z,1.90
2018-02-21T17:11:41.391Z,1.00
2018-02-21T17:14:09.778Z,1.50
2018-02-21T17:16:43.017Z,1.40
2018-02-21T17:19:15.340Z,0.90
2018-02-21T17:21:42.751Z,0.70
2018-02-21T17:24:10.944Z,0.10
2018-02-21T17:26:45.004Z,0.50
2018-02-21T17:29:14.770Z,0.40
2018-02-21T17:31:42.904Z,0.40
2018-02-21T17:34:09.398Z,0.30
2018-02-21T17:36:35.856Z,0.20
2018-02-21T17:39:03.431Z,-0.30
2018-02-21T17:41:33.651Z,-0.40
2018-02-21T17:44:00.135Z,-0.40
2018-02-21T17:46:27.361Z,-0.70
2018-02-21T17:48:54.308Z,-0.70
2018-02-21T17:51:20.798Z,-0.80
2018-02-21T17:53:47.803Z,-0.80
2018-02-21T17:56:14.328Z,-0.70
2018-02-21T17:58:40.837Z,-0.70
2018-02-21T18:04:19.193Z,-0.70
2018-02-21T18:06:45.566Z,-0.80
2018-02-21T18:09:11.989Z,-0.80
2018-02-21T18:11:38.409Z,-0.80
2018-02-21T18:14:06.436Z,-0.80
2018-02-21T18:16:32.896Z,-0.80
2018-02-21T18:18:59.376Z,-0.70
2018-02-21T18:21:32.520Z,-0.60
2018-02-21T18:23:58.932Z,-0.60
2018-02-21T18:26:25.541Z,-0.40
2018-02-21T18:28:51.932Z,-0.20
2018-02-21T18:31:18.363Z,-0.10
2018-02-21T18:33:45.827Z,-0.10
2018-02-21T18:36:12.328Z,-0.20
2018-02-21T18:38:39.771Z,-0.30
2018-02-21T18:41:06.861Z,-0.30
2018-02-21T18:43:33.372Z,-0.30
2018-02-21T18:45:59.808Z,-0.30
2018-02-21T18:48:26.347Z,-0.40
2018-02-21T18:50:52.789Z,-0.50
2018-02-21T18:53:20.129Z,-0.50
2018-02-21T18:55:46.533Z,-0.50
2018-02-21T18:58:13.676Z,-0.60
2018-02-21T19:00:40.112Z,-0.60
2018-02-21T19:03:06.582Z,-0.70
2018-02-21T19:05:33.013Z,-0.70
2018-02-21T19:07:59.475Z,-0.80
2018-02-21T19:10:25.858Z,-0.80
2018-02-21T19:12:52.280Z,-0.80
2018-02-21T19:15:18.645Z,-1.00
2018-02-21T19:17:45.122Z,-1.10
2018-02-21T19:20:11.517Z,-1.30
2018-02-21T19:22:37.896Z,-1.30
2018-02-21T19:25:05.469Z,-1.30
2018-02-21T19:27:31.881Z,-1.30
2018-02-21T19:29:58.285Z,-1.40
2018-02-21T19:32:24.670Z,-1.30
2018-02-21T19:34:51.069Z,-1.30
2018-02-21T19:37:17.465Z,-1.20
2018-02-21T19:39:43.864Z,-1.10
2018-02-21T19:42:10.221Z,-1.20
2018-02-21T19:44:36.688Z,-1.20
2018-02-21T19:47:03.435Z,-1.00
2018-02-21T19:49:30.601Z,-1.50
2018-02-21T19:51:57.173Z,-1.10
2018-02-21T19:54:23.604Z,-1.70
2018-02-21T19:56:49.980Z,-1.80
2018-02-21T19:59:16.412Z,-1.80
2018-02-21T20:01:44.007Z,-1.70
2018-02-21T20:04:10.469Z,-1.30
2018-02-21T20:06:38.533Z,-1.60
2018-02-21T20:09:05.184Z,-1.60
2018-02-21T20:11:32.321Z,-1.40
2018-02-21T20:13:58.718Z,-1.40
2018-02-21T20:16:25.113Z,-1.40
2018-02-21T20:18:51.898Z,-1.20
2018-02-21T20:21:18.352Z,-1.10
2018-02-21T20:23:44.760Z,-1.10
2018-02-21T20:26:11.178Z,-1.10
2018-02-21T20:28:37.681Z,-1.00
2018-02-21T20:31:04.472Z,-1.10
2018-02-21T20:33:31.799Z,-1.10
2018-02-21T20:35:58.191Z,-1.10
2018-02-21T20:38:24.644Z,-1.10
2018-02-21T20:40:51.032Z,-1.10
2018-02-21T20:43:17.405Z,-1.20
2018-02-21T20:45:43.985Z,-1.20
2018-02-21T20:48:10.503Z,-1.30
2018-02-21T20:50:37.725Z,-1.20
2018-02-21T20:53:04.627Z,-1.30
2018-02-21T20:55:31.069Z,-1.30
2018-02-21T20:57:57.501Z,-1.20
2018-02-21T21:00:24.034Z,-1.20
2018-02-21T21:02:50.552Z,-1.20
2018-02-21T21:05:17.901Z,-1.10
2018-02-21T21:07:44.309Z,-1.20
2018-02-21T21:10:12.220Z,-1.20
2018-02-21T21:12:38.684Z,-1.20
2018-02-21T21:15:05.968Z,-1.30
2018-02-21T21:17:32.405Z,-1.30
2018-02-21T21:19:58.800Z,-1.30
2018-02-21T21:22:25.909Z,-1.30
2018-02-21T21:24:52.328Z,-1.20
2018-02-21T21:27:19.464Z,-1.40
2018-02-21T21:29:45.912Z,-1.40
2018-02-21T21:32:13.205Z,-1.40
2018-02-21T21:34:40.346Z,-1.30
2018-02-21T21:37:06.770Z,-1.30
2018-02-21T21:39:33.953Z,-1.40
2018-02-21T21:42:00.376Z,-1.20
2018-02-21T21:44:26.801Z,-1.10
2018-02-21T21:46:53.177Z,-1.40
2018-02-21T21:49:19.547Z,-1.40
2018-02-21T21:51:45.948Z,-1.00
2018-02-21T21:54:12.317Z,-1.20
2018-02-21T21:56:40.184Z,-1.70
2018-02-21T21:59:06.534Z,-1.20
2018-02-21T22:01:32.992Z,-1.60
2018-02-21T22:03:59.768Z,-1.50
2018-02-21T22:06:26.165Z,-1.60
2018-02-21T22:08:53.911Z,-1.80
2018-02-21T22:11:20.281Z,-1.80
2018-02-21T22:13:46.661Z,-1.80
2018-02-21T22:16:13.813Z,-1.90
2018-02-21T22:18:40.373Z,-2.00
2018-02-21T22:21:07.084Z,-1.70
2018-02-21T22:23:33.496Z,-1.90
2018-02-21T22:25:59.868Z,-2.00
2018-02-21T22:28:26.285Z,-2.00
2018-02-21T22:30:52.696Z,-2.00
2018-02-21T22:33:19.998Z,-2.00
2018-02-21T22:35:46.378Z,-2.00
2018-02-21T22:38:13.677Z,-1.90
2018-02-21T22:40:40.057Z,-1.90
2018-02-21T22:43:06.424Z,-2.10
2018-02-21T22:45:32.815Z,-2.10
2018-02-21T22:48:00.029Z,-2.10
2018-02-21T22:50:26.889Z,-2.00
2018-02-21T22:52:53.290Z,-2.00
2018-02-21T22:55:19.652Z,-2.20
2018-02-21T22:57:46.058Z,-2.20
2018-02-21T23:00:13.173Z,-2.20
2018-02-21T23:02:39.524Z,-2.20
2018-02-21T23:05:06.158Z,-2.10
2018-02-21T23:07:32.496Z,-2.20
2018-02-21T23:09:58.862Z,-2.20
2018-02-21T23:12:25.208Z,-2.00
2018-02-21T23:14:52.352Z,-2.30
2018-02-21T23:17:18.711Z,-2.30
2018-02-21T23:19:45.074Z,-2.30
2018-02-21T23:22:11.413Z,-2.20
2018-02-21T23:24:39.301Z,-2.40
2018-02-21T23:27:05.749Z,-2.40
2018-02-21T23:29:32.108Z,-2.40
2018-02-21T23:31:59.288Z,-2.50
2018-02-21T23:34:25.660Z,-2.50
2018-02-21T23:36:52.051Z,-2.50
2018-02-21T23:39:18.416Z,-2.00
2018-02-21T23:41:44.852Z,-2.20
2018-02-21T23:44:11.940Z,-2.40
2018-02-21T23:46:38.320Z,-2.50
2018-02-21T23:49:05.248Z,-2.00
2018-02-21T23:51:31.654Z,-2.50
2018-02-21T23:53:58.017Z,-2.60
2018-02-21T23:56:24.453Z,-2.30
2018-02-21T23:58:51.021Z,-2.60
